Terminal Aerodrome Forecast
Issued by NWS

Home | Current Version | Previous Version | Text Only | Print | Product List | Glossary On
Versions: 1 2 3 4 5 6 7 8 9 10 11 12 13 14 15 16 17 18 19 20 21 22 23 24 25 26 27 28
000
FTUS45 KSLC 291120
TAFENV
TAF
KENV 291120Z 2912/3012 08007KT P6SM FEW080 SCT120
     FM291700 14010G16KT P6SM FEW080 SCT120
     FM292100 20016G22KT P6SM VCSH SCT080 BKN120
     FM300200 27011G17KT P6SM FEW080 SCT120
     FM300700 31009KT P6SM FEW100 SCT150
      AMD LTD TO CLD VIS AND WIND=

USA.gov is the U.S. government's official web portal to all federal, state and local government web resources and services.